createdAt,value
2022-09-30T00:00:50.106Z,9.0
2022-09-30T00:05:56.462Z,10.0
2022-09-30T00:11:02.520Z,10.0
2022-09-30T00:16:08.952Z,11.0
2022-09-30T00:21:14.934Z,12.0
2022-09-30T00:26:21.268Z,12.0
2022-09-30T00:31:27.416Z,11.0
2022-09-30T00:36:33.760Z,11.0
2022-09-30T00:41:39.761Z,11.0
2022-09-30T00:46:46.241Z,11.0
2022-09-30T00:51:51.206Z,11.0
2022-09-30T00:56:57.632Z,12.0
2022-09-30T01:02:02.761Z,12.0
2022-09-30T01:07:09.097Z,11.0
2022-09-30T01:12:15.066Z,10.0
2022-09-30T01:17:21.527Z,10.0
2022-09-30T01:22:27.487Z,11.0
2022-09-30T01:27:33.931Z,11.0
2022-09-30T01:32:39.899Z,11.0
2022-09-30T01:37:46.373Z,12.0
2022-09-30T01:42:52.317Z,13.0
2022-09-30T01:47:58.648Z,13.0
2022-09-30T01:53:04.723Z,14.0
2022-09-30T01:58:10.933Z,13.0
2022-09-30T02:03:17.142Z,11.0
2022-09-30T02:08:23.556Z,12.0
2022-09-30T02:13:29.558Z,12.0
2022-09-30T02:18:35.763Z,10.0
2022-09-30T02:23:42.208Z,9.0
2022-09-30T02:28:48.183Z,11.0
2022-09-30T02:33:54.637Z,11.0
2022-09-30T02:39:00.595Z,11.0
2022-09-30T02:44:07.021Z,11.5
2022-09-30T02:49:12.043Z,11.0
2022-09-30T02:54:18.494Z,11.0
2022-09-30T02:59:23.608Z,12.0
2022-09-30T03:04:29.819Z,14.0
2022-09-30T03:09:35.961Z,14.0
2022-09-30T03:14:42.333Z,15.0
2022-09-30T03:19:48.315Z,15.0
2022-09-30T03:24:54.772Z,15.0
2022-09-30T03:30:00.733Z,15.0
2022-09-30T03:35:07.094Z,14.0
2022-09-30T03:40:13.144Z,14.0
2022-09-30T03:45:19.580Z,13.0
2022-09-30T03:50:25.565Z,14.0
2022-09-30T03:55:31.922Z,14.0
2022-09-30T04:00:38.028Z,14.0
2022-09-30T04:05:44.414Z,14.0
2022-09-30T04:10:50.394Z,15.0
2022-09-30T04:15:57.195Z,14.0
2022-09-30T04:21:02.808Z,14.0
2022-09-30T04:26:09.251Z,14.0
2022-09-30T04:31:15.251Z,13.0
2022-09-30T04:36:21.624Z,14.0
2022-09-30T04:41:27.636Z,15.0
2022-09-30T04:46:33.066Z,14.0
2022-09-30T04:51:39.076Z,14.0
2022-09-30T04:56:44.527Z,15.0
2022-09-30T05:01:50.568Z,15.5
2022-09-30T05:06:56.942Z,16.0
2022-09-30T05:12:02.942Z,16.0
2022-09-30T05:17:09.369Z,16.0
2022-09-30T05:22:15.358Z,17.0
2022-09-30T05:27:21.784Z,17.0
2022-09-30T05:32:27.768Z,16.0
2022-09-30T05:37:34.165Z,16.0
2022-09-30T05:42:40.179Z,17.0
2022-09-30T05:47:46.516Z,18.0
2022-09-30T05:52:52.588Z,18.0
2022-09-30T05:57:58.935Z,18.0
2022-09-30T06:03:05.096Z,18.0
2022-09-30T06:08:11.441Z,18.0
2022-09-30T06:13:17.422Z,17.0
2022-09-30T06:18:23.626Z,16.0
2022-09-30T06:23:29.832Z,15.0
2022-09-30T06:28:36.034Z,17.0
2022-09-30T06:33:42.522Z,18.0
2022-09-30T06:38:48.460Z,19.0
2022-09-30T06:49:06.816Z,20.0
2022-09-30T06:54:05.140Z,20.0
2022-09-30T06:59:11.352Z,20.0
2022-09-30T07:04:17.790Z,21.0
2022-09-30T07:09:22.913Z,22.0
2022-09-30T07:14:29.114Z,23.0
2022-09-30T07:19:35.204Z,23.0
2022-09-30T07:24:41.609Z,24.0
2022-09-30T07:30:08.213Z,23.0
2022-09-30T07:34:53.831Z,24.0
2022-09-30T07:40:00.026Z,25.0
2022-09-30T07:45:06.474Z,26.0
2022-09-30T07:50:12.443Z,26.0
2022-09-30T07:55:18.785Z,26.0
2022-09-30T08:00:41.077Z,27.5
2022-09-30T08:05:31.070Z,30.0
2022-09-30T08:10:37.274Z,30.0
2022-09-30T08:15:43.620Z,31.0
2022-09-30T08:20:49.688Z,36.0
2022-09-30T08:25:56.033Z,34.0
2022-09-30T08:31:02.108Z,32.5
2022-09-30T08:36:08.548Z,33.0
2022-09-30T08:41:14.518Z,34.0
2022-09-30T08:46:20.911Z,33.0
2022-09-30T08:51:26.934Z,34.0
2022-09-30T08:56:32.414Z,33.0
2022-09-30T09:01:38.476Z,32.0
2022-09-30T09:06:44.721Z,31.0
2022-09-30T09:11:50.802Z,30.5
2022-09-30T09:16:56.311Z,29.5
2022-09-30T09:22:02.241Z,28.0
2022-09-30T09:27:08.661Z,26.0
2022-09-30T09:32:14.695Z,25.0
2022-09-30T09:37:21.104Z,22.0
2022-09-30T09:42:27.117Z,21.0
2022-09-30T09:47:33.427Z,18.0
2022-09-30T09:52:39.507Z,18.0
2022-09-30T09:57:45.859Z,15.0
2022-09-30T10:02:51.938Z,14.0
2022-09-30T10:07:58.361Z,13.0
2022-09-30T10:13:04.412Z,11.0
2022-09-30T10:18:10.570Z,12.0
2022-09-30T10:23:16.779Z,13.0
2022-09-30T10:28:23.277Z,13.0
2022-09-30T10:33:29.199Z,13.0
2022-09-30T10:38:35.489Z,12.0
2022-09-30T10:43:41.849Z,12.0
2022-09-30T10:48:47.820Z,10.0
2022-09-30T10:53:54.170Z,11.0
2022-09-30T10:59:00.249Z,11.0
2022-09-30T11:04:05.631Z,14.0
2022-09-30T11:09:11.678Z,14.0
2022-09-30T11:14:18.017Z,14.0
2022-09-30T11:19:24.096Z,14.0
2022-09-30T11:24:30.448Z,12.0
2022-09-30T11:29:36.520Z,11.0
2022-09-30T11:34:42.867Z,10.0
2022-09-30T11:39:48.947Z,9.0
2022-09-30T11:44:55.273Z,8.0
2022-09-30T11:50:01.359Z,6.0
2022-09-30T11:55:10.589Z,4.0
2022-09-30T12:00:13.769Z,4.0
2022-09-30T12:05:20.201Z,3.0
2022-09-30T12:10:26.191Z,3.0
2022-09-30T12:15:32.522Z,3.0
2022-09-30T12:20:38.596Z,2.0
2022-09-30T12:25:45.041Z,2.0
2022-09-30T12:30:51.016Z,2.0
2022-09-30T12:35:57.375Z,2.0
2022-09-30T12:41:03.432Z,1.0
2022-09-30T12:46:09.827Z,2.0
2022-09-30T12:51:14.876Z,1.0
2022-09-30T12:56:21.221Z,1.0
2022-09-30T13:01:26.358Z,1.0
2022-09-30T13:06:33.214Z,1.0
2022-09-30T13:11:37.764Z,2.0
2022-09-30T13:16:44.252Z,1.0
2022-09-30T13:21:52.175Z,1.0
2022-09-30T13:26:56.593Z,1.0
2022-09-30T13:32:02.708Z,1.0
2022-09-30T13:37:08.938Z,1.0
2022-09-30T13:42:15.024Z,1.0
2022-09-30T13:47:21.437Z,1.0
2022-09-30T13:52:27.433Z,1.0
2022-09-30T13:57:33.771Z,1.0
2022-09-30T14:02:39.849Z,1.0
2022-09-30T14:07:46.256Z,1.0
2022-09-30T14:12:52.273Z,1.0
2022-09-30T14:17:58.694Z,1.0
2022-09-30T14:23:04.682Z,1.0
2022-09-30T14:28:11.121Z,1.0
2022-09-30T14:33:17.099Z,1.0
2022-09-30T14:38:23.308Z,1.0
2022-09-30T14:43:29.519Z,1.0
2022-09-30T14:48:35.726Z,1.0
2022-09-30T14:53:42.068Z,1.0
2022-09-30T14:58:47.169Z,1.0
2022-09-30T15:03:53.616Z,1.0
2022-09-30T15:08:59.581Z,1.0
2022-09-30T15:14:05.036Z,1.0
2022-09-30T15:19:11.027Z,1.0
2022-09-30T15:24:17.489Z,1.0
2022-09-30T15:29:23.448Z,1.0
2022-09-30T15:34:29.796Z,1.0
2022-09-30T15:39:35.859Z,1.0
2022-09-30T15:44:42.241Z,1.0
2022-09-30T15:49:48.275Z,1.0
2022-09-30T15:54:54.620Z,1.0
2022-09-30T16:00:00.713Z,1.0
2022-09-30T16:05:07.051Z,1.0
2022-09-30T16:10:13.124Z,1.0
2022-09-30T16:15:19.526Z,1.0
2022-09-30T16:20:25.528Z,1.0
2022-09-30T16:25:31.972Z,1.0
2022-09-30T16:30:37.947Z,1.0
2022-09-30T16:35:44.381Z,1.0
2022-09-30T16:40:50.366Z,1.0
2022-09-30T16:45:56.860Z,1.0
2022-09-30T16:51:01.804Z,1.0
2022-09-30T16:56:08.233Z,1.0
2022-09-30T17:01:13.294Z,1.0
2022-09-30T17:06:19.703Z,1.0
2022-09-30T17:11:24.693Z,1.0
2022-09-30T17:16:31.436Z,1.0
2022-09-30T17:21:37.103Z,1.0
2022-09-30T17:26:43.544Z,3.0
2022-09-30T17:31:49.544Z,2.0
2022-09-30T17:36:55.922Z,2.0
2022-09-30T17:42:01.948Z,2.0
2022-09-30T17:47:08.372Z,1.0
2022-09-30T17:52:14.383Z,1.0
2022-09-30T17:57:20.738Z,1.0
2022-09-30T18:02:26.841Z,2.0
2022-09-30T18:07:33.153Z,2.0
2022-09-30T18:12:39.249Z,2.0
2022-09-30T18:17:45.669Z,2.0
2022-09-30T18:22:51.666Z,2.0
2022-09-30T18:27:58.204Z,2.0
2022-09-30T18:33:04.102Z,2.0
2022-09-30T18:38:10.318Z,2.0
2022-09-30T18:43:16.534Z,2.0
2022-09-30T18:48:22.951Z,2.0
2022-09-30T18:53:32.760Z,2.0
2022-09-30T18:58:34.208Z,3.0
2022-09-30T19:03:40.555Z,2.0
2022-09-30T19:08:46.621Z,3.0
2022-09-30T19:13:53.086Z,2.0
2022-09-30T19:18:59.052Z,3.0
2022-09-30T19:24:05.482Z,3.0
2022-09-30T19:29:11.477Z,3.0
2022-09-30T19:34:29.333Z,3.0
2022-09-30T19:39:24.774Z,3.0
2022-09-30T19:44:30.332Z,3.0
2022-09-30T19:49:36.330Z,3.0
2022-09-30T19:54:42.786Z,3.0
2022-09-30T19:59:48.760Z,3.0
2022-09-30T20:04:55.180Z,2.0
2022-09-30T20:10:01.185Z,3.0
2022-09-30T20:15:07.520Z,2.0
2022-09-30T20:20:13.603Z,2.0
2022-09-30T20:25:19.954Z,2.0
2022-09-30T20:30:26.027Z,2.0
2022-09-30T20:40:38.455Z,2.0
2022-09-30T20:45:44.941Z,2.0
2022-09-30T20:50:49.907Z,2.0
2022-09-30T20:55:56.623Z,2.0
2022-09-30T21:01:01.403Z,3.0
2022-09-30T21:06:07.711Z,3.0
2022-09-30T21:11:13.806Z,3.0
2022-09-30T21:16:20.272Z,3.0
2022-09-30T21:21:26.221Z,4.0
2022-09-30T21:26:32.640Z,4.0
2022-09-30T21:31:38.713Z,3.0
2022-09-30T21:36:45.079Z,3.0
2022-09-30T21:41:51.078Z,4.0
2022-09-30T21:46:57.434Z,3.0
2022-09-30T21:52:03.514Z,3.0
2022-09-30T21:57:09.851Z,3.0
2022-09-30T22:02:15.957Z,3.0
2022-09-30T22:07:22.267Z,3.0
2022-09-30T22:12:28.350Z,3.5
2022-09-30T22:17:34.708Z,3.0
2022-09-30T22:22:40.776Z,3.0
2022-09-30T22:32:53.210Z,4.0
2022-09-30T22:37:59.562Z,4.0
2022-09-30T22:43:05.620Z,4.0
2022-09-30T22:48:11.971Z,4.0
2022-09-30T22:53:17.075Z,4.0
2022-09-30T22:58:23.419Z,4.0
2022-09-30T23:03:28.610Z,4.0
2022-09-30T23:08:34.826Z,5.0
2022-09-30T23:13:41.076Z,4.0
2022-09-30T23:18:47.146Z,4.0
2022-09-30T23:23:53.479Z,4.0
2022-09-30T23:28:59.565Z,5.0
2022-09-30T23:34:05.991Z,5.0
2022-09-30T23:39:11.980Z,4.0
2022-09-30T23:44:18.398Z,5.0
2022-09-30T23:49:24.397Z,5.0
2022-09-30T23:54:30.729Z,4.0
2022-09-30T23:59:36.808Z,5.0
